Time;durP1;ratioP1;P1;durP2;ratioP2;P2;SDS_P1;SDS_P2;PMS_P1;PMS_P2;Temp;Humidity;BMP_temperature;BMP_pressure;BME280_temperature;BME280_humidity;BME280_pressure;Samples;Min_cycle;Max_cycle;Signal;HPM_P1;HPM_P2
2023/01/26 00:00:06;;;;;;;39.67;18.98;;;;;7.30;102309.00;;;;5081472;28;20191;-76
2023/01/26 00:02:33;;;;;;;40.15;18.88;;;;;7.30;102302.00;;;;5070879;28;20205;-76
2023/01/26 00:05:01;;;;;;;36.38;16.83;;;;;7.30;102300.00;;;;5073529;28;20198;-76
2023/01/26 00:07:29;;;;;;;39.22;18.23;;;;;7.30;102298.00;;;;5079877;28;20198;-76
2023/01/26 00:09:56;;;;;;;38.22;17.77;;;;;7.30;102295.00;;;;5090362;28;20205;-76
2023/01/26 00:12:27;;;;;;;41.88;18.45;;;;;7.30;102293.00;;;;5090836;28;20198;-76
2023/01/26 00:14:54;;;;;;;34.75;17.20;;;;;7.40;102289.00;;;;5072595;28;20191;-76
2023/01/26 00:17:27;;;;;;;36.58;16.33;;;;;7.30;102284.00;;;;5070296;28;20202;-76
2023/01/26 00:19:56;;;;;;;37.38;17.38;;;;;7.30;102288.00;;;;5074445;28;20206;-76
2023/01/26 00:22:24;;;;;;;41.95;18.13;;;;;7.30;102287.00;;;;5075080;28;20708;-76
2023/01/26 00:24:51;;;;;;;36.28;17.38;;;;;7.30;102281.00;;;;5084260;28;20206;-76
2023/01/26 00:27:18;;;;;;;34.80;16.55;;;;;7.40;102287.00;;;;5089493;28;20198;-77
2023/01/26 00:29:47;;;;;;;34.47;16.77;;;;;7.40;102278.00;;;;5070967;28;20206;-77
2023/01/26 00:32:14;;;;;;;34.72;16.52;;;;;7.40;102280.00;;;;5073903;28;20191;-76
2023/01/26 00:34:42;;;;;;;33.47;15.80;;;;;7.40;102275.00;;;;5087655;28;20202;-76
2023/01/26 00:37:09;;;;;;;29.42;14.27;;;;;7.40;102273.00;;;;5079162;28;20198;-76
2023/01/26 00:39:36;;;;;;;31.17;15.88;;;;;7.40;102269.00;;;;5073979;28;20195;-76
2023/01/26 00:42:08;;;;;;;33.88;16.40;;;;;7.40;102260.00;;;;5070697;28;20195;-77
2023/01/26 00:44:38;;;;;;;31.50;16.70;;;;;7.40;102267.00;;;;5074465;28;20636;-76
2023/01/26 00:47:08;;;;;;;34.53;17.05;;;;;7.40;102263.00;;;;5089579;28;20237;-76
2023/01/26 00:49:36;;;;;;;32.53;15.10;;;;;7.40;102264.00;;;;5076781;28;20202;-76
2023/01/26 00:52:03;;;;;;;31.55;15.18;;;;;7.40;102270.00;;;;5073449;28;20195;-77
2023/01/26 00:54:32;;;;;;;33.05;16.55;;;;;7.40;102263.00;;;;5089160;28;20691;-77
2023/01/26 00:56:59;;;;;;;32.05;14.65;;;;;7.40;102270.00;;;;5089941;28;20190;-76
2023/01/26 00:59:26;;;;;;;31.70;14.77;;;;;7.40;102264.00;;;;5087558;28;20206;-77
2023/01/26 01:01:54;;;;;;;31.33;15.40;;;;;7.40;102259.00;;;;5081462;28;20190;-76
2023/01/26 01:04:22;;;;;;;29.02;14.13;;;;;7.40;102267.00;;;;5085763;28;20195;-76
2023/01/26 01:06:50;;;;;;;31.23;13.70;;;;;7.40;102264.00;;;;5079775;28;20507;-76
2023/01/26 01:09:17;;;;;;;31.63;14.35;;;;;7.40;102262.00;;;;5080521;28;20195;-76
2023/01/26 01:11:45;;;;;;;30.88;15.07;;;;;7.40;102261.00;;;;5069099;28;20195;-76
2023/01/26 01:14:13;;;;;;;32.30;14.70;;;;;7.40;102253.00;;;;5068827;28;20202;-76
2023/01/26 01:16:40;;;;;;;27.00;13.85;;;;;7.40;102254.00;;;;5088508;28;20682;-77
2023/01/26 01:19:08;;;;;;;28.35;14.23;;;;;7.40;102254.00;;;;5084455;28;20206;-76
2023/01/26 01:21:36;;;;;;;28.77;13.45;;;;;7.40;102248.00;;;;5079813;28;20205;-76
2023/01/26 01:24:04;;;;;;;27.67;14.02;;;;;7.40;102252.00;;;;5086748;28;20222;-76
2023/01/26 01:26:31;;;;;;;31.92;16.00;;;;;7.40;102252.00;;;;5088214;28;20237;-76
2023/01/26 01:28:59;;;;;;;29.25;14.40;;;;;7.40;102245.00;;;;5089228;28;20202;-77
2023/01/26 01:31:28;;;;;;;30.27;14.48;;;;;7.40;102245.00;;;;5088275;28;20198;-77
2023/01/26 01:33:55;;;;;;;28.92;14.05;;;;;7.40;102242.00;;;;5074238;28;20194;-76
2023/01/26 01:36:23;;;;;;;28.90;13.75;;;;;7.40;102242.00;;;;5068704;28;20582;-77
2023/01/26 01:38:52;;;;;;;25.88;13.07;;;;;7.40;102244.00;;;;5068461;28;20668;-76
2023/01/26 01:41:21;;;;;;;26.15;12.70;;;;;7.40;102247.00;;;;5071793;28;20205;-76
2023/01/26 01:43:49;;;;;;;29.50;14.88;;;;;7.40;102240.00;;;;5068999;28;20211;-76
2023/01/26 01:46:26;;;;;;;28.35;12.70;;;;;7.40;102247.00;;;;5067989;28;20226;-76
2023/01/26 01:48:58;;;;;;;28.05;13.45;;;;;7.40;102237.00;;;;5074953;28;20205;-77
2023/01/26 01:51:34;;;;;;;29.15;13.90;;;;;7.40;102240.00;;;;5088063;28;20190;-77
2023/01/26 01:54:07;;;;;;;27.55;13.27;;;;;7.40;102237.00;;;;5087649;28;20206;-77
2023/01/26 01:56:35;;;;;;;29.70;13.93;;;;;7.50;102237.00;;;;5087225;28;20676;-76
2023/01/26 01:59:05;;;;;;;26.30;13.23;;;;;7.40;102234.00;;;;5087857;28;20201;-76
2023/01/26 02:01:32;;;;;;;30.10;14.45;;;;;7.40;102231.00;;;;5079222;28;21038;-76
2023/01/26 02:04:04;;;;;;;29.25;14.05;;;;;7.40;102224.00;;;;5086380;28;20205;-76
2023/01/26 02:06:34;;;;;;;25.58;12.98;;;;;7.40;102233.00;;;;5080532;28;20222;-76
2023/01/26 02:09:05;;;;;;;32.17;15.13;;;;;7.40;102227.00;;;;5069666;28;20195;-77
2023/01/26 02:11:38;;;;;;;27.05;13.55;;;;;7.40;102223.00;;;;5067905;28;20272;-76
2023/01/26 02:14:08;;;;;;;29.00;14.05;;;;;7.40;102227.00;;;;5067762;28;20202;-77
2023/01/26 02:16:38;;;;;;;26.77;12.68;;;;;7.50;102227.00;;;;5070394;28;20202;-76
2023/01/26 02:19:11;;;;;;;28.50;13.82;;;;;7.50;102227.00;;;;5077527;28;20198;-77
2023/01/26 02:21:39;;;;;;;26.80;12.88;;;;;7.50;102218.00;;;;5068079;28;20205;-76
2023/01/26 02:24:16;;;;;;;30.15;15.13;;;;;7.40;102221.00;;;;5084158;28;20198;-76
2023/01/26 02:26:46;;;;;;;28.02;13.93;;;;;7.50;102213.00;;;;5085623;28;20222;-76
2023/01/26 02:29:13;;;;;;;28.77;13.52;;;;;7.50;102211.00;;;;5067862;28;20236;-76
2023/01/26 02:31:41;;;;;;;28.55;14.07;;;;;7.50;102221.00;;;;5075925;28;20225;-77
2023/01/26 02:34:08;;;;;;;25.98;13.73;;;;;7.50;102210.00;;;;5080747;28;20202;-76
2023/01/26 02:36:35;;;;;;;31.20;14.43;;;;;7.50;102219.00;;;;5067694;28;20199;-76
2023/01/26 02:39:24;;;;;;;29.42;14.55;;;;;7.40;102225.00;;;;5073558;28;20198;-76
2023/01/26 02:44:41;;;;;;;31.73;14.48;;;;;7.50;102216.00;;;;5067028;28;20209;-76
2023/01/26 02:47:12;;;;;;;30.75;14.30;;;;;7.50;102222.00;;;;5067444;28;20230;-76
2023/01/26 02:49:49;;;;;;;30.55;14.60;;;;;7.50;102226.00;;;;5074915;28;20244;-76
2023/01/26 02:52:18;;;;;;;29.95;15.80;;;;;7.50;102232.00;;;;5086956;28;20688;-76
2023/01/26 02:57:33;;;;;;;29.88;14.15;;;;;7.50;102227.00;;;;5079399;28;20671;-76
2023/01/26 03:00:01;;;;;;;30.83;14.40;;;;;7.60;102223.00;;;;5087114;28;20197;-76
2023/01/26 03:02:28;;;;;;;31.65;15.43;;;;;7.60;102231.00;;;;5072538;28;20221;-76
2023/01/26 03:04:55;;;;;;;30.85;14.77;;;;;7.60;102236.00;;;;5071393;28;20223;-77
2023/01/26 03:07:23;;;;;;;29.23;15.23;;;;;7.60;102238.00;;;;5069166;28;20226;-76
2023/01/26 03:09:50;;;;;;;30.83;14.10;;;;;7.60;102233.00;;;;5082607;28;20233;-76
2023/01/26 03:12:18;;;;;;;29.00;13.70;;;;;7.60;102234.00;;;;5087067;28;20218;-76
2023/01/26 03:15:33;;;;;;;35.47;15.40;;;;;7.60;102234.00;;;;5086287;28;20211;-76
2023/01/26 03:17:33;;;;;;;31.40;14.80;;;;;7.60;102233.00;;;;5087155;28;20205;-76
2023/01/26 03:28:27;;;;;;;28.63;13.70;;;;;7.60;102234.00;;;;5083572;28;20305;-76
2023/01/26 03:30:57;;;;;;;29.23;14.45;;;;;7.60;102236.00;;;;5091084;28;20202;-76
2023/01/26 03:33:24;;;;;;;32.17;14.68;;;;;7.70;102234.00;;;;5089894;28;20566;-77
2023/01/26 03:35:54;;;;;;;31.98;15.07;;;;;7.70;102232.00;;;;5086112;28;20202;-77
2023/01/26 03:38:21;;;;;;;33.70;14.90;;;;;7.70;102234.00;;;;5089330;28;20198;-77
2023/01/26 03:57:18;;;;;;;25.17;11.35;;;;;7.80;102226.00;;;;5072301;28;20248;-77
2023/01/26 03:59:45;;;;;;;28.27;13.60;;;;;7.80;102224.00;;;;5080001;28;20194;-77
2023/01/26 04:10:29;;;;;;;25.15;12.32;;;;;7.80;102222.00;;;;5072460;28;20240;-77
2023/01/26 04:21:27;;;;;;;27.83;12.80;;;;;7.90;102226.00;;;;5071337;28;20210;-77
2023/01/26 04:23:56;;;;;;;25.92;12.40;;;;;7.90;102230.00;;;;5091253;28;20202;-77
2023/01/26 04:26:23;;;;;;;25.30;12.45;;;;;7.90;102222.00;;;;5071932;28;20218;-77
2023/01/26 04:28:50;;;;;;;28.25;12.60;;;;;7.90;102227.00;;;;5069759;28;20861;-77
2023/01/26 04:31:18;;;;;;;24.77;12.90;;;;;7.90;102226.00;;;;5070533;28;20699;-77
2023/01/26 04:33:46;;;;;;;23.63;12.07;;;;;7.90;102221.00;;;;5076526;28;20228;-77
2023/01/26 04:36:14;;;;;;;25.10;12.85;;;;;7.90;102232.00;;;;5070074;28;20665;-77
2023/01/26 04:38:41;;;;;;;23.77;11.75;;;;;7.90;102223.00;;;;5078500;28;20716;-77
2023/01/26 04:41:08;;;;;;;23.63;12.15;;;;;8.00;102230.00;;;;5071336;28;20203;-77
2023/01/26 04:43:35;;;;;;;23.15;12.95;;;;;8.00;102222.00;;;;5069809;28;20203;-77
2023/01/26 04:46:05;;;;;;;23.35;11.38;;;;;8.00;102223.00;;;;5069433;28;20596;-77
2023/01/26 04:48:33;;;;;;;19.77;10.02;;;;;8.00;102225.00;;;;5069473;28;20565;-77
2023/01/26 04:51:03;;;;;;;23.85;11.55;;;;;8.00;102218.00;;;;5070042;28;20199;-77
2023/01/26 04:53:32;;;;;;;22.10;10.93;;;;;8.00;102222.00;;;;5068971;28;20519;-77
2023/01/26 04:56:00;;;;;;;23.23;12.52;;;;;8.00;102214.00;;;;5076321;28;20672;-77
2023/01/26 04:58:27;;;;;;;22.15;11.50;;;;;8.10;102211.00;;;;5089264;28;20206;-77
2023/01/26 05:00:57;;;;;;;23.30;11.32;;;;;8.00;102215.00;;;;5089996;28;20195;-77
2023/01/26 05:03:25;;;;;;;24.95;12.13;;;;;8.10;102212.00;;;;5082620;28;20202;-77
2023/01/26 05:05:54;;;;;;;18.20;10.27;;;;;8.10;102210.00;;;;5071762;28;20195;-77
2023/01/26 05:08:23;;;;;;;20.58;10.50;;;;;8.10;102204.00;;;;5073318;28;20219;-77
2023/01/26 05:10:51;;;;;;;21.27;10.30;;;;;8.10;102207.00;;;;5073965;28;20202;-77
2023/01/26 05:13:18;;;;;;;20.92;10.43;;;;;8.10;102207.00;;;;5089136;28;20252;-77
2023/01/26 05:15:46;;;;;;;22.20;11.23;;;;;8.10;102201.00;;;;5088589;28;20210;-77
2023/01/26 05:18:13;;;;;;;23.63;11.38;;;;;8.10;102197.00;;;;5077670;28;20195;-77
2023/01/26 05:20:41;;;;;;;21.88;11.10;;;;;8.10;102200.00;;;;5068779;28;20218;-77
2023/01/26 05:23:08;;;;;;;19.95;10.45;;;;;8.10;102190.00;;;;5069478;28;20195;-77
2023/01/26 05:25:37;;;;;;;20.92;10.52;;;;;8.10;102200.00;;;;5069960;28;20206;-77
2023/01/26 05:28:04;;;;;;;22.92;12.40;;;;;8.20;102197.00;;;;5077877;28;20229;-77
2023/01/26 05:30:32;;;;;;;21.88;11.45;;;;;8.20;102195.00;;;;5087409;28;20201;-77
2023/01/26 05:33:03;;;;;;;23.58;12.45;;;;;8.20;102202.00;;;;5081993;28;20641;-77
2023/01/26 05:35:30;;;;;;;19.67;9.45;;;;;8.20;102196.00;;;;5068486;28;20202;-77
2023/01/26 05:37:57;;;;;;;23.77;11.48;;;;;8.20;102203.00;;;;5068806;28;20230;-77
2023/01/26 05:40:25;;;;;;;19.15;9.95;;;;;8.20;102201.00;;;;5069827;28;20191;-77
2023/01/26 05:42:54;;;;;;;21.15;11.38;;;;;8.20;102190.00;;;;5073606;28;20573;-77
2023/01/26 05:45:22;;;;;;;19.65;10.38;;;;;8.20;102194.00;;;;5070594;28;20230;-77
2023/01/26 05:47:49;;;;;;;23.15;12.18;;;;;8.20;102191.00;;;;5082517;28;20226;-77
2023/01/26 05:50:17;;;;;;;23.90;11.63;;;;;8.20;102206.00;;;;5088500;28;20198;-77
2023/01/26 05:52:45;;;;;;;23.25;10.95;;;;;8.20;102204.00;;;;5087298;28;20202;-77
2023/01/26 05:55:13;;;;;;;22.77;11.88;;;;;8.20;102201.00;;;;5088965;28;20202;-77
2023/01/26 05:57:40;;;;;;;20.88;10.23;;;;;8.20;102199.00;;;;5082215;28;20194;-77
2023/01/26 06:00:11;;;;;;;22.10;10.85;;;;;8.20;102206.00;;;;5086069;28;20205;-77
2023/01/26 06:02:38;;;;;;;20.35;10.57;;;;;8.20;102206.00;;;;5084919;28;20195;-77
2023/01/26 06:05:07;;;;;;;21.45;10.85;;;;;8.20;102212.00;;;;5078686;28;20202;-77
2023/01/26 06:07:35;;;;;;;23.10;11.60;;;;;8.20;102216.00;;;;5081458;28;20233;-77
2023/01/26 06:10:02;;;;;;;21.75;11.00;;;;;8.20;102219.00;;;;5084674;28;20999;-77
2023/01/26 06:12:34;;;;;;;20.27;9.85;;;;;8.30;102227.00;;;;5081091;28;20194;-77
2023/01/26 06:15:01;;;;;;;22.50;10.82;;;;;8.30;102229.00;;;;5074725;28;20195;-77
2023/01/26 06:17:30;;;;;;;22.58;10.48;;;;;8.30;102217.00;;;;5067564;28;20191;-77
2023/01/26 06:19:57;;;;;;;21.30;10.38;;;;;8.30;102226.00;;;;5074085;28;20201;-77
2023/01/26 06:22:24;;;;;;;21.13;11.00;;;;;8.30;102224.00;;;;5080604;28;20209;-77
2023/01/26 06:24:52;;;;;;;22.17;11.40;;;;;8.30;102230.00;;;;5067725;28;20210;-77
2023/01/26 06:27:19;;;;;;;22.88;11.25;;;;;8.30;102233.00;;;;5076317;28;20222;-77
2023/01/26 06:29:47;;;;;;;20.67;10.48;;;;;8.30;102237.00;;;;5074478;28;20237;-77
2023/01/26 06:32:15;;;;;;;23.83;11.50;;;;;8.40;102236.00;;;;5078714;28;20194;-77
2023/01/26 06:34:44;;;;;;;24.05;11.00;;;;;8.40;102233.00;;;;5066843;28;20202;-77
2023/01/26 06:37:12;;;;;;;23.42;11.45;;;;;8.40;102237.00;;;;5072352;28;20218;-77
2023/01/26 06:39:40;;;;;;;21.52;10.48;;;;;8.40;102233.00;;;;5069683;28;20205;-77
2023/01/26 06:42:08;;;;;;;20.52;10.35;;;;;8.40;102234.00;;;;5068280;28;20242;-77
2023/01/26 06:44:35;;;;;;;20.42;9.65;;;;;8.40;102241.00;;;;5078410;28;20649;-78
2023/01/26 06:47:04;;;;;;;19.38;10.45;;;;;8.40;102233.00;;;;5073624;28;20235;-77
2023/01/26 06:49:32;;;;;;;20.77;9.98;;;;;8.40;102240.00;;;;5082555;28;20210;-77
2023/01/26 06:52:09;;;;;;;21.27;10.48;;;;;8.40;102244.00;;;;5067618;28;20191;-77
2023/01/26 06:54:36;;;;;;;19.48;9.82;;;;;8.40;102243.00;;;;5073396;28;20201;-77
2023/01/26 06:57:03;;;;;;;20.15;10.95;;;;;8.40;102242.00;;;;5076333;28;20191;-77
2023/01/26 06:59:31;;;;;;;22.30;11.63;;;;;8.50;102251.00;;;;5082081;28;20733;-78
2023/01/26 07:01:58;;;;;;;22.48;10.85;;;;;8.50;102255.00;;;;5082196;28;20199;-78
2023/01/26 07:04:26;;;;;;;19.95;10.15;;;;;8.40;102254.00;;;;5077048;28;20201;-78
2023/01/26 07:06:54;;;;;;;23.15;12.02;;;;;8.50;102255.00;;;;5080377;28;20296;-77
2023/01/26 07:09:22;;;;;;;20.80;10.77;;;;;8.50;102257.00;;;;5073564;28;20202;-77
2023/01/26 07:11:49;;;;;;;22.40;11.63;;;;;8.50;102252.00;;;;5077898;28;20199;-77
2023/01/26 07:14:17;;;;;;;19.67;9.90;;;;;8.50;102252.00;;;;5072041;28;20704;-77
2023/01/26 07:16:44;;;;;;;20.15;10.18;;;;;8.50;102249.00;;;;5083605;28;20665;-77
2023/01/26 07:19:11;;;;;;;21.25;10.82;;;;;8.50;102242.00;;;;5083176;28;20209;-77
2023/01/26 07:21:39;;;;;;;23.52;12.55;;;;;8.50;102250.00;;;;5076800;28;20212;-77
2023/01/26 07:24:08;;;;;;;23.17;11.07;;;;;8.50;102255.00;;;;5070596;28;20186;-77
2023/01/26 07:26:37;;;;;;;20.73;10.60;;;;;8.50;102260.00;;;;5076613;28;20194;-77
2023/01/26 07:29:04;;;;;;;22.50;11.60;;;;;8.50;102253.00;;;;5086453;28;20219;-76
2023/01/26 07:31:31;;;;;;;23.90;11.63;;;;;8.50;102264.00;;;;5070044;28;20198;-76
2023/01/26 07:33:58;;;;;;;24.58;12.75;;;;;8.50;102260.00;;;;5070662;28;20202;-76
2023/01/26 07:36:26;;;;;;;24.17;11.38;;;;;8.50;102260.00;;;;5070538;28;20199;-77
2023/01/26 07:38:53;;;;;;;22.23;11.13;;;;;8.50;102269.00;;;;5070748;28;20195;-76
2023/01/26 07:41:20;;;;;;;21.95;10.63;;;;;8.60;102266.00;;;;5070784;28;20199;-76
2023/01/26 07:43:50;;;;;;;22.25;10.00;;;;;8.50;102278.00;;;;5070131;28;20195;-76
2023/01/26 07:46:18;;;;;;;24.77;12.18;;;;;8.60;102287.00;;;;5084874;28;20233;-77
2023/01/26 07:48:45;;;;;;;23.80;12.48;;;;;8.60;102300.00;;;;5084316;28;20603;-77
2023/01/26 07:51:12;;;;;;;23.38;11.20;;;;;8.60;102286.00;;;;5080736;28;20198;-77
2023/01/26 07:53:42;;;;;;;24.67;11.90;;;;;8.60;102289.00;;;;5075453;28;20199;-77
2023/01/26 07:56:11;;;;;;;21.48;10.93;;;;;8.60;102276.00;;;;5071669;28;20665;-77
2023/01/26 07:58:38;;;;;;;23.98;12.40;;;;;8.60;102294.00;;;;5075332;28;20218;-78
2023/01/26 08:01:09;;;;;;;23.25;11.57;;;;;8.60;102287.00;;;;5070449;28;20191;-77
2023/01/26 08:03:37;;;;;;;28.88;12.95;;;;;8.60;102292.00;;;;5077224;28;20199;-78
2023/01/26 08:06:05;;;;;;;26.10;12.77;;;;;8.60;102288.00;;;;5075290;28;20202;-78
2023/01/26 08:08:32;;;;;;;22.52;11.18;;;;;8.60;102281.00;;;;5076621;28;20738;-77
2023/01/26 08:11:01;;;;;;;22.98;11.63;;;;;8.60;102276.00;;;;5083423;28;20195;-78
2023/01/26 08:13:29;;;;;;;22.40;11.13;;;;;8.60;102274.00;;;;5076986;28;20198;-77
2023/01/26 08:16:01;;;;;;;22.63;10.38;;;;;8.60;102275.00;;;;5084844;28;20199;-78
2023/01/26 08:18:30;;;;;;;22.65;11.23;;;;;8.70;102280.00;;;;5071259;28;20232;-78
2023/01/26 08:20:59;;;;;;;21.05;10.35;;;;;8.70;102283.00;;;;5080950;28;20207;-78
2023/01/26 08:23:28;;;;;;;21.33;10.02;;;;;8.70;102279.00;;;;5087493;28;20683;-78
2023/01/26 08:25:55;;;;;;;22.98;10.02;;;;;8.70;102284.00;;;;5085620;28;20198;-78
2023/01/26 08:28:22;;;;;;;22.75;10.65;;;;;8.70;102291.00;;;;5078912;28;20219;-78
2023/01/26 08:30:50;;;;;;;19.60;10.05;;;;;8.70;102296.00;;;;5079355;28;20214;-78
2023/01/26 08:33:17;;;;;;;23.63;11.55;;;;;8.80;102299.00;;;;5081825;28;20194;-78
2023/01/26 08:35:46;;;;;;;22.58;10.05;;;;;8.80;102292.00;;;;5074285;28;20186;-79
2023/01/26 08:38:13;;;;;;;21.63;10.75;;;;;8.80;102297.00;;;;5076177;28;20199;-78
2023/01/26 08:40:40;;;;;;;23.15;11.50;;;;;8.80;102297.00;;;;5087515;28;20194;-77
2023/01/26 08:43:07;;;;;;;21.92;11.75;;;;;8.90;102295.00;;;;5073156;28;20203;-76
2023/01/26 08:45:35;;;;;;;19.13;9.63;;;;;8.90;102295.00;;;;5076827;28;20227;-76
2023/01/26 08:48:02;;;;;;;23.20;10.90;;;;;8.90;102301.00;;;;5076263;28;20226;-76
2023/01/26 08:50:29;;;;;;;24.08;11.75;;;;;9.00;102300.00;;;;5079285;28;20211;-76
2023/01/26 08:52:58;;;;;;;18.27;9.45;;;;;9.00;102311.00;;;;5071172;28;20195;-76
2023/01/26 08:55:27;;;;;;;23.80;10.65;;;;;9.10;102315.00;;;;5088241;28;20200;-76
2023/01/26 08:57:55;;;;;;;20.90;10.88;;;;;9.10;102306.00;;;;5089237;28;20202;-76
2023/01/26 09:00:24;;;;;;;20.70;10.43;;;;;9.10;102318.00;;;;5081610;28;20199;-75
2023/01/26 09:02:58;;;;;;;19.23;10.00;;;;;9.20;102312.00;;;;5078093;28;20214;-76
2023/01/26 09:05:25;;;;;;;18.25;9.27;;;;;9.20;102307.00;;;;5079259;28;20194;-76
2023/01/26 09:07:52;;;;;;;17.33;9.27;;;;;9.20;102315.00;;;;5075361;28;20916;-76
2023/01/26 09:10:21;;;;;;;18.48;9.27;;;;;9.30;102309.00;;;;5078486;28;20209;-76
2023/01/26 09:12:48;;;;;;;17.17;8.25;;;;;9.30;102314.00;;;;5075311;28;20194;-76
2023/01/26 09:15:15;;;;;;;16.25;8.32;;;;;9.40;102311.00;;;;5071670;28;20695;-77
2023/01/26 09:17:43;;;;;;;17.58;8.40;;;;;9.40;102310.00;;;;5067880;28;20211;-77
2023/01/26 09:20:11;;;;;;;17.73;9.02;;;;;9.50;102320.00;;;;5067616;28;20194;-77
2023/01/26 09:22:38;;;;;;;19.83;8.85;;;;;9.50;102317.00;;;;5076296;28;20198;-77
2023/01/26 09:25:07;;;;;;;17.60;8.57;;;;;9.50;102316.00;;;;5077772;28;20201;-77
2023/01/26 09:27:36;;;;;;;19.58;8.52;;;;;9.60;102324.00;;;;5070547;28;20207;-76
2023/01/26 09:30:04;;;;;;;17.65;8.30;;;;;9.70;102319.00;;;;5085093;28;20194;-77
2023/01/26 09:32:31;;;;;;;16.60;7.82;;;;;9.70;102318.00;;;;5075395;28;20210;-77
2023/01/26 09:34:58;;;;;;;21.83;8.98;;;;;9.80;102318.00;;;;5085043;28;20202;-77
2023/01/26 09:37:25;;;;;;;15.88;7.78;;;;;9.80;102316.00;;;;5088463;28;20202;-76
2023/01/26 09:39:53;;;;;;;17.20;8.02;;;;;9.90;102315.00;;;;5073424;28;21012;-77
2023/01/26 09:42:48;;;;;;;17.38;8.35;;;;;9.90;102318.00;;;;5073021;28;20201;-77
2023/01/26 09:45:31;;;;;;;11.15;6.40;;;;;10.00;102318.00;;;;5070013;28;20198;-76
2023/01/26 09:48:18;;;;;;;15.48;6.90;;;;;10.10;102325.00;;;;5076925;28;20218;-75
2023/01/26 09:50:52;;;;;;;15.63;7.75;;;;;10.20;102339.00;;;;5076954;28;20194;-76
2023/01/26 09:53:25;;;;;;;13.20;6.53;;;;;10.30;102334.00;;;;5072348;28;20198;-75
2023/01/26 09:55:53;;;;;;;17.95;6.97;;;;;10.40;102329.00;;;;5074306;28;20198;-76
2023/01/26 09:58:37;;;;;;;15.20;6.68;;;;;10.40;102336.00;;;;5073444;28;20887;-76
2023/01/26 10:01:09;;;;;;;10.00;5.10;;;;;10.50;102338.00;;;;5076084;28;20190;-76
2023/01/26 10:03:43;;;;;;;11.70;5.90;;;;;10.60;102340.00;;;;5077890;28;20191;-76
2023/01/26 10:06:20;;;;;;;15.65;5.45;;;;;10.70;102341.00;;;;5068323;28;21178;-76
2023/01/26 10:08:49;;;;;;;12.88;5.78;;;;;10.80;102341.00;;;;5069576;28;20222;-75
2023/01/26 10:11:23;;;;;;;9.35;4.85;;;;;10.80;102348.00;;;;5069040;28;20195;-75
2023/01/26 10:13:57;;;;;;;9.20;4.68;;;;;10.90;102349.00;;;;5078337;28;20545;-75
2023/01/26 10:16:25;;;;;;;14.18;5.03;;;;;11.00;102340.00;;;;5076370;28;20202;-75
2023/01/26 10:18:55;;;;;;;11.20;4.45;;;;;11.10;102340.00;;;;5087026;28;20586;-76
2023/01/26 10:21:26;;;;;;;10.02;2.95;;;;;11.20;102335.00;;;;5066032;28;20214;-77
2023/01/26 10:23:54;;;;;;;10.57;3.22;;;;;11.20;102337.00;;;;5077916;28;20206;-75
2023/01/26 10:26:23;;;;;;;8.32;2.83;;;;;11.30;102336.00;;;;5070479;28;20210;-75
2023/01/26 10:28:53;;;;;;;9.15;2.38;;;;;11.30;102327.00;;;;5075242;28;20222;-75
2023/01/26 10:31:22;;;;;;;7.88;2.78;;;;;11.40;102335.00;;;;5085820;28;20197;-75
2023/01/26 10:33:56;;;;;;;8.43;2.47;;;;;11.40;102332.00;;;;5075834;28;20643;-75
2023/01/26 10:36:24;;;;;;;9.05;1.73;;;;;11.50;102337.00;;;;5071850;28;20215;-75
2023/01/26 10:38:52;;;;;;;3.92;1.60;;;;;11.60;102336.00;;;;5082203;28;20226;-75
2023/01/26 10:41:28;;;;;;;8.25;2.03;;;;;11.60;102336.00;;;;5072577;28;20198;-75
2023/01/26 10:43:58;;;;;;;6.88;1.73;;;;;11.60;102327.00;;;;5076641;28;20205;-75
2023/01/26 10:46:31;;;;;;;4.47;1.23;;;;;11.70;102329.00;;;;5076931;28;20226;-75
2023/01/26 10:49:00;;;;;;;10.65;2.42;;;;;11.80;102332.00;;;;5074715;28;20211;-77
2023/01/26 10:51:30;;;;;;;5.70;2.13;;;;;11.80;102332.00;;;;5067214;28;20206;-75
2023/01/26 10:54:21;;;;;;;6.60;1.67;;;;;11.80;102341.00;;;;5080217;28;20927;-75
2023/01/26 10:56:51;;;;;;;5.13;1.05;;;;;12.00;102335.00;;;;5071468;28;20242;-75
2023/01/26 10:59:30;;;;;;;9.98;1.70;;;;;12.00;102345.00;;;;5081147;28;20261;-75
2023/01/26 11:02:00;;;;;;;2.95;0.93;;;;;12.10;102344.00;;;;5073450;28;20194;-75
2023/01/26 11:04:29;;;;;;;3.60;1.20;;;;;12.20;102355.00;;;;5082977;28;20221;-75
2023/01/26 11:07:14;;;;;;;8.70;1.98;;;;;12.20;102348.00;;;;5072456;28;20202;-74
2023/01/26 11:09:41;;;;;;;4.82;0.90;;;;;12.30;102353.00;;;;5075948;28;20228;-75
2023/01/26 11:12:19;;;;;;;11.88;1.30;;;;;12.40;102354.00;;;;5086122;28;20205;-74
2023/01/26 11:15:02;;;;;;;8.13;1.58;;;;;12.50;102356.00;;;;5071573;28;20194;-75
2023/01/26 11:17:36;;;;;;;6.55;1.13;;;;;12.70;102358.00;;;;5079901;28;20236;-74
2023/01/26 11:20:25;;;;;;;7.95;1.83;;;;;12.70;102359.00;;;;5073384;28;20202;-75
2023/01/26 11:23:01;;;;;;;10.32;1.98;;;;;12.90;102362.00;;;;5077617;28;20643;-75
2023/01/26 11:25:34;;;;;;;6.38;1.73;;;;;12.90;102357.00;;;;5075105;28;20205;-75
2023/01/26 11:28:31;;;;;;;5.15;1.20;;;;;13.00;102353.00;;;;5084936;28;20205;-74
2023/01/26 11:31:14;;;;;;;5.80;1.25;;;;;13.00;102351.00;;;;5076188;28;20205;-74
2023/01/26 11:33:51;;;;;;;7.20;1.13;;;;;13.10;102352.00;;;;5078640;28;20186;-74
2023/01/26 11:36:28;;;;;;;9.02;1.08;;;;;13.20;102350.00;;;;5083955;28;20205;-74
2023/01/26 11:39:09;;;;;;;7.20;1.20;;;;;13.20;102344.00;;;;5086192;28;20206;-74
2023/01/26 11:41:49;;;;;;;3.15;0.93;;;;;13.30;102348.00;;;;5072665;28;20199;-74
2023/01/26 11:44:47;;;;;;;8.27;1.52;;;;;13.30;102345.00;;;;5079559;28;20203;-74
2023/01/26 11:47:36;;;;;;;3.30;0.70;;;;;13.40;102347.00;;;;5075587;28;20230;-74
2023/01/26 11:50:26;;;;;;;4.78;1.40;;;;;13.40;102340.00;;;;5074266;28;20744;-75
2023/01/26 11:53:05;;;;;;;5.78;1.08;;;;;13.50;102343.00;;;;5073748;28;20206;-74
2023/01/26 11:55:48;;;;;;;8.57;1.10;;;;;13.60;102339.00;;;;5088135;28;20213;-74
2023/01/26 11:58:27;;;;;;;2.80;0.82;;;;;13.70;102335.00;;;;5078224;28;20576;-74
2023/01/26 12:00:58;;;;;;;4.57;1.00;;;;;13.80;102343.00;;;;5089659;28;20205;-74
2023/01/26 12:03:35;;;;;;;3.97;1.40;;;;;13.80;102339.00;;;;5089175;28;20672;-74
2023/01/26 12:06:06;;;;;;;7.85;0.63;;;;;13.80;102337.00;;;;5089632;28;20205;-74
2023/01/26 12:08:39;;;;;;;3.22;0.82;;;;;13.80;102328.00;;;;5085378;28;20198;-74
2023/01/26 12:11:22;;;;;;;2.97;0.98;;;;;13.80;102327.00;;;;5083158;28;21059;-74
2023/01/26 12:14:07;;;;;;;6.72;1.17;;;;;13.80;102328.00;;;;5079789;28;20570;-74
2023/01/26 12:16:47;;;;;;;7.05;1.67;;;;;13.80;102320.00;;;;5071116;28;20202;-74
2023/01/26 12:19:36;;;;;;;6.68;1.30;;;;;13.80;102312.00;;;;5088145;28;20206;-74
2023/01/26 12:22:11;;;;;;;5.53;0.80;;;;;13.90;102312.00;;;;5070803;28;20195;-74
2023/01/26 12:24:43;;;;;;;9.02;1.40;;;;;13.90;102314.00;;;;5072661;28;20248;-74
2023/01/26 12:27:21;;;;;;;11.38;1.23;;;;;13.90;102303.00;;;;5083181;28;20189;-74
2023/01/26 12:29:52;;;;;;;6.78;1.13;;;;;13.90;102302.00;;;;5076307;28;20226;-74
2023/01/26 12:32:21;;;;;;;5.68;1.00;;;;;13.90;102307.00;;;;5069912;28;20215;-74
2023/01/26 12:34:50;;;;;;;3.67;0.85;;;;;13.90;102308.00;;;;5074920;28;20206;-74
2023/01/26 12:37:41;;;;;;;5.60;1.33;;;;;13.90;102299.00;;;;5087866;28;20206;-74
2023/01/26 12:40:21;;;;;;;6.22;1.20;;;;;13.90;102296.00;;;;5090133;28;20204;-74
2023/01/26 12:42:58;;;;;;;5.30;0.73;;;;;14.00;102286.00;;;;5069814;28;20195;-74
2023/01/26 12:45:30;;;;;;;5.07;0.60;;;;;14.00;102279.00;;;;5081095;28;20225;-74
2023/01/26 12:48:07;;;;;;;9.20;1.38;;;;;14.00;102283.00;;;;5074409;28;20206;-74
2023/01/26 12:50:41;;;;;;;5.35;0.95;;;;;14.10;102284.00;;;;5089694;28;20715;-75
2023/01/26 12:53:14;;;;;;;2.70;1.02;;;;;14.10;102282.00;;;;5075312;28;20668;-75
2023/01/26 12:55:46;;;;;;;4.75;1.48;;;;;14.20;102280.00;;;;5083855;28;20202;-74
2023/01/26 12:58:18;;;;;;;6.20;1.23;;;;;14.30;102276.00;;;;5080190;28;20206;-74
2023/01/26 13:00:53;;;;;;;4.30;0.70;;;;;14.30;102283.00;;;;5075829;28;20198;-75
2023/01/26 13:03:24;;;;;;;11.18;1.25;;;;;14.30;102267.00;;;;5085211;28;20666;-74